Wind From: 18-12-2018 23:00 Until: 19-12-2018 22:59 warning for: Wind Level: Yellow info button

Nearby METAR Reports

 

ENZV - Stavanger
Updated: 19/12/2018 16:20
Mostly cloudy
Mostly cloudy
 Wind from SE
Wind: SE 30 km/h
Temperature: 6°C
Wind Chill: 2°C
Dew Point: 1°C
Humidity: 71%
Barometer: 1005 hPa
Clouds: Mostly cloudy
Visibility: 10 km
Cloud details: Few Clouds 853 m
Mostly cloudy 1676 m
2018/12/19 15:20 ENZV 191520Z 14016KT 9999 FEW028 BKN055 06/01 Q1005 NOSIG
ENBR - Bergen
Updated: 19/12/2018 16:20
Mostly cloudy
Mostly cloudy
 Wind from SSE
Wind: SSE 22 km/h
Temperature: 8°C
Wind Chill: 4°C
Dew Point: -4°C
Humidity: 43%
Barometer: 1005 hPa
Clouds: Mostly cloudy
Visibility: 10 km
Cloud details: Few Clouds 1372 m
Mostly cloudy 1829 m
2018/12/19 15:20 ENBR 191520Z 15012KT 9999 FEW045 BKN060 08/M04 Q1005 NOSIG RMK WIND 1200FT 13024KT
 
ENHD - Haugesund
Updated: 19/12/2018 15:50
Light rain, Overcast
Light rain, Overcast
 Wind from SE
Wind: SE 26 km/h
Temperature: 5°C
Wind Chill: 1°C
Dew Point: 2°C
Humidity: 81%
Barometer: 1005 hPa
Summary: Light rain
Clouds: Overcast
Visibility: 10 km
Cloud details: Overcast 732 m
2018/12/19 14:50 ENHD 191450Z 14014KT 9999 -RA OVC024 05/02 Q1005
ENCN - Kristiansand
Updated: 19/12/2018 16:20
Mostly cloudy
Mostly cloudy
 Wind from ESE
Wind: ESE 15 km/h
Temperature: 5°C
Wind Chill: 2°C
Dew Point: 2°C
Humidity: 81%
Barometer: 1010 hPa
Clouds: Mostly cloudy
Visibility: 10 km
Cloud details: Mostly cloudy 518 m
2018/12/19 15:20 ENCN 191520Z 11008KT 080V150 9999 BKN017 05/02 Q1010
 
ENBO - Bodø
Updated: 19/12/2018 15:50
Few Clouds
Few Clouds
 Wind from E
Wind: E 44 km/h
Temperature: 1°C
Wind Chill: -6°C
Dew Point: -7°C
Humidity: 56%
Barometer: 1019 hPa
Clouds: Few Clouds
Visibility: 10 km
Cloud details: Few Clouds 1524 m
2018/12/19 14:50 ENBO 191450Z 10024KT 9999 FEW050 01/M07 Q1019 TEMPO 12025G35KT
ENKR - Kirkenes
Updated: 19/12/2018 15:50
Clear
Clear
 Wind from SW
Wind: SW 20 km/h
Temperature: -7°C
Wind Chill: -14°C
Dew Point: -9°C
Humidity: 86%
Barometer: 1029 hPa
Summary: Clear
Visibility: greater than 10 km
2018/12/19 14:50 ENKR 191450Z 23011KT CAVOK M07/M09 Q1029 RMK WIND 731FT 24019KT
 
ENVA - Trondheim
Updated: 19/12/2018 16:20
Clear
Clear
 Wind from SE
Wind: SE 20 km/h
Temperature: 4°C
Wind Chill: -1°C
Dew Point: -4°C
Humidity: 56%
Barometer: 1013 hPa
Summary: Clear
Visibility: greater than 10 km
2018/12/19 15:20 ENVA 191520Z 13011KT 080V170 CAVOK 04/M04 Q1013 TEMPO 16018G30KT RMK WIND 670FT 16022G32KT
ENGM - Oslo
Updated: 19/12/2018 16:20
Overcast
Overcast
 Wind from E
Wind: E 9 km/h
Temperature: -1°C
Wind Chill: -4°C
Dew Point: -1°C
Humidity: 100%
Barometer: 1016 hPa
Clouds: Overcast
Visibility: 9 km
Cloud details: Overcast 122 m
2018/12/19 15:20 ENGM 191520Z 10005KT 060V150 9000 OVC004 M01/M01 Q1016 TEMPO BKN005